sensor_id;sensor_type;location;lat;lon;timestamp;pressure;altitude;pressure_sealevel;temperature;humidity
35577;BME280;21680;52.400;16.920;2023-02-28T00:00:10;102294.21;;;-1.35;69.77
35577;BME280;21680;52.400;16.920;2023-02-28T00:02:38;102299.61;;;-1.36;69.85
35577;BME280;21680;52.400;16.920;2023-02-28T00:05:04;102299.70;;;-1.39;69.95
35577;BME280;21680;52.400;16.920;2023-02-28T00:07:31;102301.39;;;-1.41;70.13
35577;BME280;21680;52.400;16.920;2023-02-28T00:09:57;102300.77;;;-1.44;69.98
35577;BME280;21680;52.400;16.920;2023-02-28T00:12:22;102303.44;;;-1.48;70.23
35577;BME280;21680;52.400;16.920;2023-02-28T00:14:48;102303.89;;;-1.50;70.16
35577;BME280;21680;52.400;16.920;2023-02-28T00:17:13;102300.86;;;-1.51;70.08
35577;BME280;21680;52.400;16.920;2023-02-28T00:19:39;102300.33;;;-1.52;70.26
35577;BME280;21680;52.400;16.920;2023-02-28T00:22:04;102297.66;;;-1.53;70.01
35577;BME280;21680;52.400;16.920;2023-02-28T00:24:30;102299.05;;;-1.53;70.38
35577;BME280;21680;52.400;16.920;2023-02-28T00:26:55;102294.09;;;-1.55;70.37
35577;BME280;21680;52.400;16.920;2023-02-28T00:29:21;102303.16;;;-1.56;70.41
35577;BME280;21680;52.400;16.920;2023-02-28T00:31:46;102300.50;;;-1.57;70.42
35577;BME280;21680;52.400;16.920;2023-02-28T00:34:11;102296.42;;;-1.58;70.52
35577;BME280;21680;52.400;16.920;2023-02-28T00:36:37;102296.59;;;-1.58;70.40
35577;BME280;21680;52.400;16.920;2023-02-28T00:39:03;102299.02;;;-1.59;70.52
35577;BME280;21680;52.400;16.920;2023-02-28T00:41:28;102304.64;;;-1.59;70.54
35577;BME280;21680;52.400;16.920;2023-02-28T00:43:53;102303.70;;;-1.61;70.53
35577;BME280;21680;52.400;16.920;2023-02-28T00:46:18;102300.88;;;-1.61;70.80
35577;BME280;21680;52.400;16.920;2023-02-28T00:48:44;102296.13;;;-1.62;70.51
35577;BME280;21680;52.400;16.920;2023-02-28T00:51:09;102299.83;;;-1.61;70.73
35577;BME280;21680;52.400;16.920;2023-02-28T00:53:34;102297.05;;;-1.61;70.78
35577;BME280;21680;52.400;16.920;2023-02-28T00:56:00;102303.90;;;-1.61;70.58
35577;BME280;21680;52.400;16.920;2023-02-28T00:58:26;102303.17;;;-1.61;70.86
35577;BME280;21680;52.400;16.920;2023-02-28T01:00:51;102301.23;;;-1.62;70.88
35577;BME280;21680;52.400;16.920;2023-02-28T01:03:19;102300.52;;;-1.62;70.87
35577;BME280;21680;52.400;16.920;2023-02-28T01:05:45;102301.04;;;-1.62;70.95
35577;BME280;21680;52.400;16.920;2023-02-28T01:08:10;102303.30;;;-1.63;70.80
35577;BME280;21680;52.400;16.920;2023-02-28T01:10:36;102304.50;;;-1.64;70.83
35577;BME280;21680;52.400;16.920;2023-02-28T01:13:02;102305.67;;;-1.65;71.03
35577;BME280;21680;52.400;16.920;2023-02-28T01:15:28;102303.02;;;-1.66;71.05
35577;BME280;21680;52.400;16.920;2023-02-28T01:17:53;102299.52;;;-1.67;71.18
35577;BME280;21680;52.400;16.920;2023-02-28T01:20:19;102297.36;;;-1.67;71.42
35577;BME280;21680;52.400;16.920;2023-02-28T01:22:44;102298.70;;;-1.70;71.41
35577;BME280;21680;52.400;16.920;2023-02-28T01:25:10;102296.55;;;-1.71;71.30
35577;BME280;21680;52.400;16.920;2023-02-28T01:27:35;102297.23;;;-1.72;71.31
35577;BME280;21680;52.400;16.920;2023-02-28T01:30:02;102292.45;;;-1.73;71.19
35577;BME280;21680;52.400;16.920;2023-02-28T01:32:27;102293.62;;;-1.75;71.29
35577;BME280;21680;52.400;16.920;2023-02-28T01:34:52;102293.04;;;-1.76;71.40
35577;BME280;21680;52.400;16.920;2023-02-28T01:37:18;102293.50;;;-1.78;71.39
35577;BME280;21680;52.400;16.920;2023-02-28T01:39:43;102296.25;;;-1.80;71.57
35577;BME280;21680;52.400;16.920;2023-02-28T01:42:09;102294.10;;;-1.81;71.57
35577;BME280;21680;52.400;16.920;2023-02-28T01:45:14;102292.80;;;-1.83;71.78
35577;BME280;21680;52.400;16.920;2023-02-28T01:47:43;102293.80;;;-1.85;71.54
35577;BME280;21680;52.400;16.920;2023-02-28T01:50:15;102291.96;;;-1.87;71.65
35577;BME280;21680;52.400;16.920;2023-02-28T01:52:41;102293.27;;;-1.90;71.82
35577;BME280;21680;52.400;16.920;2023-02-28T01:55:10;102292.04;;;-1.91;71.71
35577;BME280;21680;52.400;16.920;2023-02-28T01:57:41;102294.48;;;-1.91;71.88
35577;BME280;21680;52.400;16.920;2023-02-28T02:00:10;102289.70;;;-1.92;71.96
35577;BME280;21680;52.400;16.920;2023-02-28T02:02:38;102288.91;;;-1.95;71.81
35577;BME280;21680;52.400;16.920;2023-02-28T02:05:15;102285.36;;;-1.96;71.90
35577;BME280;21680;52.400;16.920;2023-02-28T02:07:45;102287.73;;;-1.99;71.90
35577;BME280;21680;52.400;16.920;2023-02-28T02:16:23;102285.41;;;-2.10;72.12
35577;BME280;21680;52.400;16.920;2023-02-28T02:25:00;102286.44;;;-2.21;72.46
35577;BME280;21680;52.400;16.920;2023-02-28T02:33:23;102288.33;;;-2.27;72.31
35577;BME280;21680;52.400;16.920;2023-02-28T02:35:59;102289.17;;;-2.27;72.23
35577;BME280;21680;52.400;16.920;2023-02-28T02:41:16;102290.40;;;-2.33;72.23
35577;BME280;21680;52.400;16.920;2023-02-28T02:43:50;102285.02;;;-2.36;72.25
35577;BME280;21680;52.400;16.920;2023-02-28T02:46:27;102288.95;;;-2.39;72.36
35577;BME280;21680;52.400;16.920;2023-02-28T02:48:56;102284.35;;;-2.40;72.46
35577;BME280;21680;52.400;16.920;2023-02-28T02:51:23;102283.77;;;-2.42;72.46
35577;BME280;21680;52.400;16.920;2023-02-28T02:53:55;102282.58;;;-2.41;72.31
35577;BME280;21680;52.400;16.920;2023-02-28T02:56:26;102280.14;;;-2.40;72.54
35577;BME280;21680;52.400;16.920;2023-02-28T02:58:56;102280.33;;;-2.41;72.48
35577;BME280;21680;52.400;16.920;2023-02-28T03:01:26;102279.12;;;-2.40;72.60
35577;BME280;21680;52.400;16.920;2023-02-28T03:04:00;102283.00;;;-2.39;72.65
35577;BME280;21680;52.400;16.920;2023-02-28T03:06:27;102279.87;;;-2.38;72.73
35577;BME280;21680;52.400;16.920;2023-02-28T03:08:52;102276.37;;;-2.39;72.72
35577;BME280;21680;52.400;16.920;2023-02-28T03:11:18;102274.45;;;-2.38;73.10
35577;BME280;21680;52.400;16.920;2023-02-28T03:16:46;102278.27;;;-2.39;72.79
35577;BME280;21680;52.400;16.920;2023-02-28T03:25:19;102283.29;;;-2.41;72.94
35577;BME280;21680;52.400;16.920;2023-02-28T03:30:39;102279.95;;;-2.41;73.09
35577;BME280;21680;52.400;16.920;2023-02-28T03:33:10;102279.75;;;-2.42;72.82
35577;BME280;21680;52.400;16.920;2023-02-28T03:35:39;102285.50;;;-2.42;73.14
35577;BME280;21680;52.400;16.920;2023-02-28T03:38:10;102282.27;;;-2.44;73.24
35577;BME280;21680;52.400;16.920;2023-02-28T03:40:43;102283.29;;;-2.45;73.16
35577;BME280;21680;52.400;16.920;2023-02-28T03:43:15;102284.13;;;-2.46;73.03
35577;BME280;21680;52.400;16.920;2023-02-28T03:45:43;102286.48;;;-2.49;73.26
35577;BME280;21680;52.400;16.920;2023-02-28T03:48:40;102284.09;;;-2.52;73.45
35577;BME280;21680;52.400;16.920;2023-02-28T03:51:09;102283.92;;;-2.57;73.26
35577;BME280;21680;52.400;16.920;2023-02-28T03:53:45;102287.67;;;-2.60;73.01
35577;BME280;21680;52.400;16.920;2023-02-28T03:56:27;102287.73;;;-2.64;73.41
35577;BME280;21680;52.400;16.920;2023-02-28T03:59:22;102294.77;;;-2.68;73.32
35577;BME280;21680;52.400;16.920;2023-02-28T04:01:50;102291.27;;;-2.72;73.10
35577;BME280;21680;52.400;16.920;2023-02-28T04:04:17;102292.84;;;-2.77;73.40
35577;BME280;21680;52.400;16.920;2023-02-28T04:06:44;102295.18;;;-2.80;73.13
35577;BME280;21680;52.400;16.920;2023-02-28T04:09:12;102295.83;;;-2.81;73.41
35577;BME280;21680;52.400;16.920;2023-02-28T04:11:40;102299.66;;;-2.82;73.50
35577;BME280;21680;52.400;16.920;2023-02-28T04:14:08;102300.35;;;-2.82;73.62
35577;BME280;21680;52.400;16.920;2023-02-28T04:16:35;102300.95;;;-2.84;73.58
35577;BME280;21680;52.400;16.920;2023-02-28T04:19:06;102304.59;;;-2.85;73.74
35577;BME280;21680;52.400;16.920;2023-02-28T04:21:35;102305.23;;;-2.87;73.72
35577;BME280;21680;52.400;16.920;2023-02-28T04:24:01;102306.21;;;-2.89;73.67
35577;BME280;21680;52.400;16.920;2023-02-28T04:26:35;102311.59;;;-2.90;73.68
35577;BME280;21680;52.400;16.920;2023-02-28T04:29:02;102310.85;;;-2.91;73.66
35577;BME280;21680;52.400;16.920;2023-02-28T04:31:28;102312.21;;;-2.92;74.00
35577;BME280;21680;52.400;16.920;2023-02-28T04:33:53;102313.45;;;-2.92;74.26
35577;BME280;21680;52.400;16.920;2023-02-28T04:36:18;102315.49;;;-2.93;73.85
35577;BME280;21680;52.400;16.920;2023-02-28T04:38:45;102317.93;;;-2.93;73.76
35577;BME280;21680;52.400;16.920;2023-02-28T04:41:15;102316.06;;;-2.97;73.95
35577;BME280;21680;52.400;16.920;2023-02-28T04:43:40;102315.48;;;-2.98;73.71
35577;BME280;21680;52.400;16.920;2023-02-28T04:46:06;102320.50;;;-3.00;74.09
35577;BME280;21680;52.400;16.920;2023-02-28T04:48:34;102320.92;;;-3.02;73.94
35577;BME280;21680;52.400;16.920;2023-02-28T04:51:13;102324.98;;;-3.06;74.04
35577;BME280;21680;52.400;16.920;2023-02-28T04:53:40;102322.55;;;-3.10;74.22
35577;BME280;21680;52.400;16.920;2023-02-28T04:56:07;102327.17;;;-3.12;74.03
35577;BME280;21680;52.400;16.920;2023-02-28T04:58:35;102331.15;;;-3.14;74.07
35577;BME280;21680;52.400;16.920;2023-02-28T05:01:03;102328.84;;;-3.14;74.31
35577;BME280;21680;52.400;16.920;2023-02-28T05:03:29;102328.48;;;-3.14;73.76
35577;BME280;21680;52.400;16.920;2023-02-28T05:05:55;102324.48;;;-3.14;74.63
35577;BME280;21680;52.400;16.920;2023-02-28T05:08:20;102325.86;;;-3.14;74.25
35577;BME280;21680;52.400;16.920;2023-02-28T05:10:46;102331.29;;;-3.14;74.31
35577;BME280;21680;52.400;16.920;2023-02-28T05:13:12;102329.01;;;-3.15;74.57
35577;BME280;21680;52.400;16.920;2023-02-28T05:15:38;102333.54;;;-3.15;74.47
35577;BME280;21680;52.400;16.920;2023-02-28T05:18:03;102335.61;;;-3.15;74.68
35577;BME280;21680;52.400;16.920;2023-02-28T05:20:28;102337.48;;;-3.17;74.69
35577;BME280;21680;52.400;16.920;2023-02-28T05:22:54;102339.67;;;-3.19;74.33
35577;BME280;21680;52.400;16.920;2023-02-28T05:25:21;102339.41;;;-3.21;74.51
35577;BME280;21680;52.400;16.920;2023-02-28T05:27:48;102343.11;;;-3.25;74.42
35577;BME280;21680;52.400;16.920;2023-02-28T05:30:14;102338.33;;;-3.26;74.38
35577;BME280;21680;52.400;16.920;2023-02-28T05:32:40;102337.77;;;-3.27;74.36
35577;BME280;21680;52.400;16.920;2023-02-28T05:35:11;102339.20;;;-3.26;74.57
35577;BME280;21680;52.400;16.920;2023-02-28T05:37:38;102342.21;;;-3.25;74.78
35577;BME280;21680;52.400;16.920;2023-02-28T05:40:05;102346.98;;;-3.24;74.93
35577;BME280;21680;52.400;16.920;2023-02-28T05:42:37;102350.39;;;-3.22;74.77
35577;BME280;21680;52.400;16.920;2023-02-28T05:45:03;102354.88;;;-3.19;74.54
35577;BME280;21680;52.400;16.920;2023-02-28T05:47:29;102353.56;;;-3.17;74.95
35577;BME280;21680;52.400;16.920;2023-02-28T05:49:54;102352.56;;;-3.15;74.94
35577;BME280;21680;52.400;16.920;2023-02-28T05:52:19;102356.23;;;-3.15;74.88
35577;BME280;21680;52.400;16.920;2023-02-28T05:54:46;102361.33;;;-3.15;74.88
35577;BME280;21680;52.400;16.920;2023-02-28T05:57:12;102360.80;;;-3.15;74.93
35577;BME280;21680;52.400;16.920;2023-02-28T05:59:39;102362.18;;;-3.16;74.74
35577;BME280;21680;52.400;16.920;2023-02-28T06:02:05;102365.98;;;-3.17;75.06
35577;BME280;21680;52.400;16.920;2023-02-28T06:04:31;102362.05;;;-3.19;74.94
35577;BME280;21680;52.400;16.920;2023-02-28T06:06:56;102363.61;;;-3.19;74.95
35577;BME280;21680;52.400;16.920;2023-02-28T06:09:22;102367.98;;;-3.19;74.91
35577;BME280;21680;52.400;16.920;2023-02-28T06:11:48;102371.83;;;-3.19;74.93
35577;BME280;21680;52.400;16.920;2023-02-28T06:14:18;102373.73;;;-3.20;74.93
35577;BME280;21680;52.400;16.920;2023-02-28T06:16:44;102377.79;;;-3.18;75.52
35577;BME280;21680;52.400;16.920;2023-02-28T06:19:10;102376.76;;;-3.18;75.23
35577;BME280;21680;52.400;16.920;2023-02-28T06:21:36;102375.36;;;-3.18;75.27
35577;BME280;21680;52.400;16.920;2023-02-28T06:24:02;102378.02;;;-3.17;75.39
35577;BME280;21680;52.400;16.920;2023-02-28T06:26:28;102376.83;;;-3.16;75.45
35577;BME280;21680;52.400;16.920;2023-02-28T06:28:53;102378.00;;;-3.14;75.14
35577;BME280;21680;52.400;16.920;2023-02-28T06:31:20;102381.20;;;-3.12;75.28
35577;BME280;21680;52.400;16.920;2023-02-28T06:33:46;102384.42;;;-3.10;75.19
35577;BME280;21680;52.400;16.920;2023-02-28T06:36:13;102382.06;;;-3.08;75.46
35577;BME280;21680;52.400;16.920;2023-02-28T06:38:40;102383.58;;;-3.05;75.65
35577;BME280;21680;52.400;16.920;2023-02-28T06:41:09;102386.67;;;-3.02;75.57
35577;BME280;21680;52.400;16.920;2023-02-28T06:43:37;102383.27;;;-3.00;75.50
35577;BME280;21680;52.400;16.920;2023-02-28T06:46:05;102380.64;;;-2.96;75.81
35577;BME280;21680;52.400;16.920;2023-02-28T06:48:31;102381.45;;;-2.92;75.68
35577;BME280;21680;52.400;16.920;2023-02-28T06:51:04;102383.06;;;-2.87;75.97
35577;BME280;21680;52.400;16.920;2023-02-28T06:53:30;102388.05;;;-2.80;75.89
35577;BME280;21680;52.400;16.920;2023-02-28T06:55:57;102385.22;;;-2.77;76.06
35577;BME280;21680;52.400;16.920;2023-02-28T06:58:23;102384.31;;;-2.73;75.99
35577;BME280;21680;52.400;16.920;2023-02-28T07:00:51;102383.73;;;-2.70;75.82
35577;BME280;21680;52.400;16.920;2023-02-28T07:03:18;102382.35;;;-2.70;75.99
35577;BME280;21680;52.400;16.920;2023-02-28T07:05:45;102382.48;;;-2.66;76.20
35577;BME280;21680;52.400;16.920;2023-02-28T07:08:10;102381.73;;;-2.63;75.99
35577;BME280;21680;52.400;16.920;2023-02-28T07:10:39;102382.75;;;-2.59;76.06
35577;BME280;21680;52.400;16.920;2023-02-28T07:13:06;102382.14;;;-2.56;76.09
35577;BME280;21680;52.400;16.920;2023-02-28T07:15:32;102380.52;;;-2.52;76.16
35577;BME280;21680;52.400;16.920;2023-02-28T07:17:57;102383.90;;;-2.46;76.40
35577;BME280;21680;52.400;16.920;2023-02-28T07:20:23;102380.30;;;-2.40;76.24
35577;BME280;21680;52.400;16.920;2023-02-28T07:22:49;102382.60;;;-2.34;76.16
35577;BME280;21680;52.400;16.920;2023-02-28T07:25:21;102385.54;;;-2.31;76.16
35577;BME280;21680;52.400;16.920;2023-02-28T07:27:47;102385.16;;;-2.27;76.56
35577;BME280;21680;52.400;16.920;2023-02-28T07:30:14;102386.21;;;-2.22;76.48
35577;BME280;21680;52.400;16.920;2023-02-28T07:32:40;102391.77;;;-2.18;76.48
35577;BME280;21680;52.400;16.920;2023-02-28T07:35:06;102393.19;;;-2.18;76.20
35577;BME280;21680;52.400;16.920;2023-02-28T07:37:31;102399.53;;;-2.17;76.22
35577;BME280;21680;52.400;16.920;2023-02-28T07:40:06;102397.30;;;-2.15;76.33
35577;BME280;21680;52.400;16.920;2023-02-28T07:42:35;102397.29;;;-2.11;76.40
35577;BME280;21680;52.400;16.920;2023-02-28T07:45:01;102401.60;;;-2.08;76.42
35577;BME280;21680;52.400;16.920;2023-02-28T07:47:29;102403.45;;;-2.05;76.53
35577;BME280;21680;52.400;16.920;2023-02-28T07:49:55;102399.05;;;-2.02;76.54
35577;BME280;21680;52.400;16.920;2023-02-28T07:52:20;102405.61;;;-1.99;76.61
35577;BME280;21680;52.400;16.920;2023-02-28T07:54:46;102395.95;;;-1.94;76.71
35577;BME280;21680;52.400;16.920;2023-02-28T07:57:11;102399.12;;;-1.89;76.88
35577;BME280;21680;52.400;16.920;2023-02-28T07:59:36;102404.20;;;-1.85;76.67
35577;BME280;21680;52.400;16.920;2023-02-28T08:02:02;102402.27;;;-1.79;76.70
35577;BME280;21680;52.400;16.920;2023-02-28T08:04:27;102407.30;;;-1.76;76.90
35577;BME280;21680;52.400;16.920;2023-02-28T08:06:52;102405.55;;;-1.71;77.13
35577;BME280;21680;52.400;16.920;2023-02-28T08:09:19;102404.54;;;-1.65;76.94
35577;BME280;21680;52.400;16.920;2023-02-28T08:11:44;102404.50;;;-1.61;76.80
35577;BME280;21680;52.400;16.920;2023-02-28T08:14:10;102406.46;;;-1.54;77.08
35577;BME280;21680;52.400;16.920;2023-02-28T08:16:35;102404.23;;;-1.48;77.02
35577;BME280;21680;52.400;16.920;2023-02-28T08:19:00;102403.76;;;-1.42;77.02
35577;BME280;21680;52.400;16.920;2023-02-28T08:21:26;102406.81;;;-1.39;77.06
35577;BME280;21680;52.400;16.920;2023-02-28T08:23:51;102405.84;;;-1.37;77.15
35577;BME280;21680;52.400;16.920;2023-02-28T08:26:18;102403.41;;;-1.31;76.97
35577;BME280;21680;52.400;16.920;2023-02-28T08:28:43;102407.52;;;-1.23;77.03
35577;BME280;21680;52.400;16.920;2023-02-28T08:31:11;102402.59;;;-1.19;77.15
35577;BME280;21680;52.400;16.920;2023-02-28T08:33:39;102406.83;;;-1.12;76.96
35577;BME280;21680;52.400;16.920;2023-02-28T08:36:06;102404.22;;;-1.07;77.02
35577;BME280;21680;52.400;16.920;2023-02-28T08:38:31;102400.38;;;-1.01;77.07
35577;BME280;21680;52.400;16.920;2023-02-28T08:40:58;102399.70;;;-0.94;77.16
35577;BME280;21680;52.400;16.920;2023-02-28T08:43:24;102401.16;;;-0.86;77.24
35577;BME280;21680;52.400;16.920;2023-02-28T08:45:53;102401.78;;;-0.78;77.15
35577;BME280;21680;52.400;16.920;2023-02-28T08:48:19;102394.97;;;-0.71;77.30
35577;BME280;21680;52.400;16.920;2023-02-28T08:50:44;102395.52;;;-0.65;77.31
35577;BME280;21680;52.400;16.920;2023-02-28T08:53:10;102396.99;;;-0.56;77.30
35577;BME280;21680;52.400;16.920;2023-02-28T08:55:35;102395.33;;;-0.48;77.48
35577;BME280;21680;52.400;16.920;2023-02-28T08:58:00;102399.39;;;-0.42;77.21
35577;BME280;21680;52.400;16.920;2023-02-28T09:00:26;102397.77;;;-0.37;77.30
35577;BME280;21680;52.400;16.920;2023-02-28T09:02:52;102396.56;;;-0.30;77.25
35577;BME280;21680;52.400;16.920;2023-02-28T09:05:17;102397.10;;;-0.24;77.26
35577;BME280;21680;52.400;16.920;2023-02-28T09:07:43;102392.11;;;-0.19;77.21
35577;BME280;21680;52.400;16.920;2023-02-28T09:10:10;102387.84;;;-0.16;77.25
35577;BME280;21680;52.400;16.920;2023-02-28T09:12:35;102384.28;;;-0.11;77.29
35577;BME280;21680;52.400;16.920;2023-02-28T09:15:01;102380.14;;;-0.08;77.27
35577;BME280;21680;52.400;16.920;2023-02-28T09:17:27;102383.54;;;-0.06;77.18
35577;BME280;21680;52.400;16.920;2023-02-28T09:19:52;102387.53;;;-0.01;77.26
35577;BME280;21680;52.400;16.920;2023-02-28T09:22:17;102383.32;;;0.07;77.35
35577;BME280;21680;52.400;16.920;2023-02-28T09:24:43;102380.52;;;0.13;77.23
35577;BME280;21680;52.400;16.920;2023-02-28T09:27:09;102380.61;;;0.17;77.12
35577;BME280;21680;52.400;16.920;2023-02-28T09:29:34;102386.71;;;0.21;77.11
35577;BME280;21680;52.400;16.920;2023-02-28T09:32:00;102382.85;;;0.28;77.13
35577;BME280;21680;52.400;16.920;2023-02-28T09:34:27;102383.73;;;0.35;77.07
35577;BME280;21680;52.400;16.920;2023-02-28T09:36:53;102387.62;;;0.42;77.20
35577;BME280;21680;52.400;16.920;2023-02-28T09:39:21;102384.17;;;0.52;77.09
35577;BME280;21680;52.400;16.920;2023-02-28T09:41:51;102383.69;;;0.60;77.07
35577;BME280;21680;52.400;16.920;2023-02-28T09:44:37;102387.70;;;0.66;76.84
35577;BME280;21680;52.400;16.920;2023-02-28T09:49:44;102395.60;;;0.79;76.74
35577;BME280;21680;52.400;16.920;2023-02-28T09:52:17;102397.67;;;0.85;76.79
35577;BME280;21680;52.400;16.920;2023-02-28T09:54:44;102400.09;;;0.90;76.73
35577;BME280;21680;52.400;16.920;2023-02-28T10:00:22;102399.69;;;0.95;76.49
35577;BME280;21680;52.400;16.920;2023-02-28T10:03:06;102403.12;;;0.99;76.47
35577;BME280;21680;52.400;16.920;2023-02-28T10:08:16;102404.01;;;1.07;76.44
35577;BME280;21680;52.400;16.920;2023-02-28T10:10:48;102402.89;;;1.12;76.35
35577;BME280;21680;52.400;16.920;2023-02-28T10:13:55;102396.65;;;1.16;76.20
35577;BME280;21680;52.400;16.920;2023-02-28T10:16:48;102395.11;;;1.25;76.25
35577;BME280;21680;52.400;16.920;2023-02-28T10:20:05;102399.73;;;1.35;76.22
35577;BME280;21680;52.400;16.920;2023-02-28T10:25:23;102391.86;;;1.53;76.03
35577;BME280;21680;52.400;16.920;2023-02-28T10:27:50;102387.95;;;1.60;76.12
35577;BME280;21680;52.400;16.920;2023-02-28T10:30:18;102391.86;;;1.70;76.10
35577;BME280;21680;52.400;16.920;2023-02-28T10:32:50;102388.67;;;1.78;76.09
35577;BME280;21680;52.400;16.920;2023-02-28T10:35:21;102383.90;;;1.85;75.74
35577;BME280;21680;52.400;16.920;2023-02-28T10:37:56;102383.55;;;1.95;75.78
35577;BME280;21680;52.400;16.920;2023-02-28T10:43:01;102378.54;;;2.18;75.88
35577;BME280;21680;52.400;16.920;2023-02-28T10:45:35;102378.44;;;2.22;75.38
35577;BME280;21680;52.400;16.920;2023-02-28T10:48:27;102375.72;;;2.18;75.34
35577;BME280;21680;52.400;16.920;2023-02-28T10:50:55;102373.95;;;2.18;75.06
35577;BME280;21680;52.400;16.920;2023-02-28T10:53:25;102369.17;;;2.27;75.35
35577;BME280;21680;52.400;16.920;2023-02-28T11:01:43;102361.27;;;2.48;74.86
35577;BME280;21680;52.400;16.920;2023-02-28T11:04:31;102353.85;;;2.38;74.20
35577;BME280;21680;52.400;16.920;2023-02-28T11:07:16;102350.73;;;2.42;74.38
35577;BME280;21680;52.400;16.920;2023-02-28T11:09:46;102346.34;;;2.42;73.97
35577;BME280;21680;52.400;16.920;2023-02-28T11:12:25;102347.36;;;2.50;73.91
35577;BME280;21680;52.400;16.920;2023-02-28T11:14:57;102349.25;;;2.71;73.81
35577;BME280;21680;52.400;16.920;2023-02-28T11:17:30;102348.13;;;2.89;73.86
35577;BME280;21680;52.400;16.920;2023-02-28T11:20:10;102344.13;;;2.93;73.30
35577;BME280;21680;52.400;16.920;2023-02-28T11:22:44;102341.21;;;2.99;73.31
35577;BME280;21680;52.400;16.920;2023-02-28T11:25:29;102339.69;;;3.15;73.26
35577;BME280;21680;52.400;16.920;2023-02-28T11:28:02;102341.70;;;3.21;72.75
35577;BME280;21680;52.400;16.920;2023-02-28T11:30:37;102342.59;;;3.34;73.04
35577;BME280;21680;52.400;16.920;2023-02-28T11:33:22;102343.88;;;3.38;72.23
35577;BME280;21680;52.400;16.920;2023-02-28T11:35:49;102339.14;;;3.39;72.10
35577;BME280;21680;52.400;16.920;2023-02-28T11:38:15;102332.83;;;3.43;72.21
35577;BME280;21680;52.400;16.920;2023-02-28T11:49:12;102323.34;;;3.77;71.37
35577;BME280;21680;52.400;16.920;2023-02-28T11:52:01;102321.45;;;3.82;71.01
35577;BME280;21680;52.400;16.920;2023-02-28T11:54:35;102322.62;;;3.92;70.95
35577;BME280;21680;52.400;16.920;2023-02-28T12:03:15;102305.61;;;3.90;69.51
35577;BME280;21680;52.400;16.920;2023-02-28T12:05:46;102303.14;;;3.90;69.20
35577;BME280;21680;52.400;16.920;2023-02-28T12:14:53;102294.32;;;4.50;69.21
35577;BME280;21680;52.400;16.920;2023-02-28T12:17:50;102296.77;;;4.70;69.17
35577;BME280;21680;52.400;16.920;2023-02-28T12:20:38;102293.23;;;4.95;69.13
35577;BME280;21680;52.400;16.920;2023-02-28T12:26:08;102283.14;;;5.40;69.10
35577;BME280;21680;52.400;16.920;2023-02-28T12:28:42;102279.15;;;5.63;68.97
35577;BME280;21680;52.400;16.920;2023-02-28T12:31:20;102275.28;;;5.76;68.61
35577;BME280;21680;52.400;16.920;2023-02-28T12:33:53;102274.75;;;5.74;68.01
35577;BME280;21680;52.400;16.920;2023-02-28T12:36:19;102277.21;;;5.68;67.57
35577;BME280;21680;52.400;16.920;2023-02-28T12:39:03;102273.65;;;5.62;67.37
35577;BME280;21680;52.400;16.920;2023-02-28T12:44:22;102265.89;;;5.79;66.84
35577;BME280;21680;52.400;16.920;2023-02-28T12:46:51;102261.67;;;5.89;66.98
35577;BME280;21680;52.400;16.920;2023-02-28T12:49:28;102261.90;;;6.31;67.44
35577;BME280;21680;52.400;16.920;2023-02-28T12:51:58;102257.20;;;6.94;67.59
35577;BME280;21680;52.400;16.920;2023-02-28T12:57:22;102249.39;;;7.71;66.49
35577;BME280;21680;52.400;16.920;2023-02-28T13:00:00;102243.73;;;8.15;66.48
35577;BME280;21680;52.400;16.920;2023-02-28T13:02:41;102243.91;;;8.40;66.03
35577;BME280;21680;52.400;16.920;2023-02-28T13:10:47;102237.30;;;9.38;65.57
35577;BME280;21680;52.400;16.920;2023-02-28T13:13:18;102233.56;;;9.52;65.59
35577;BME280;21680;52.400;16.920;2023-02-28T13:18:45;102234.23;;;9.92;65.07
35577;BME280;21680;52.400;16.920;2023-02-28T13:21:27;102229.30;;;10.10;64.74
35577;BME280;21680;52.400;16.920;2023-02-28T13:28:58;102229.61;;;10.83;63.64
35577;BME280;21680;52.400;16.920;2023-02-28T13:31:24;102216.83;;;10.97;63.37
35577;BME280;21680;52.400;16.920;2023-02-28T13:39:45;102215.08;;;10.67;61.66
35577;BME280;21680;52.400;16.920;2023-02-28T13:41:49;102210.16;;;10.91;61.96
35577;BME280;21680;52.400;16.920;2023-02-28T13:44:22;102204.39;;;11.18;61.80
35577;BME280;21680;52.400;16.920;2023-02-28T14:01:05;102190.92;;;11.04;57.99
35577;BME280;21680;52.400;16.920;2023-02-28T14:06:29;102193.75;;;10.10;56.16
35577;BME280;21680;52.400;16.920;2023-02-28T14:11:43;102188.41;;;9.12;53.72
35577;BME280;21680;52.400;16.920;2023-02-28T14:17:00;102186.17;;;9.93;55.38
35577;BME280;21680;52.400;16.920;2023-02-28T14:19:31;102177.73;;;10.39;55.59
35577;BME280;21680;52.400;16.920;2023-02-28T14:27:29;102174.81;;;10.22;53.37
35577;BME280;21680;52.400;16.920;2023-02-28T14:38:30;102176.17;;;9.07;52.48
35577;BME280;21680;52.400;16.920;2023-02-28T14:40:58;102171.60;;;8.87;52.43
35577;BME280;21680;52.400;16.920;2023-02-28T14:43:27;102170.10;;;8.45;52.22
35577;BME280;21680;52.400;16.920;2023-02-28T14:45:59;102172.05;;;8.05;51.70
35577;BME280;21680;52.400;16.920;2023-02-28T14:48:25;102175.02;;;7.47;51.37
35577;BME280;21680;52.400;16.920;2023-02-28T14:50:54;102176.13;;;7.04;50.97
35577;BME280;21680;52.400;16.920;2023-02-28T14:53:22;102174.80;;;6.78;51.31
35577;BME280;21680;52.400;16.920;2023-02-28T14:55:49;102180.70;;;6.64;51.37
35577;BME280;21680;52.400;16.920;2023-02-28T14:58:29;102187.48;;;6.52;51.53
35577;BME280;21680;52.400;16.920;2023-02-28T15:00:58;102186.97;;;6.41;51.31
35577;BME280;21680;52.400;16.920;2023-02-28T15:03:31;102179.90;;;6.13;50.87
35577;BME280;21680;52.400;16.920;2023-02-28T15:05:59;102181.30;;;5.86;51.03
35577;BME280;21680;52.400;16.920;2023-02-28T15:08:25;102185.53;;;5.70;50.92
35577;BME280;21680;52.400;16.920;2023-02-28T15:10:57;102182.50;;;5.56;51.12